sensor_id;sensor_type;location;lat;lon;timestamp;temperature;humidity
9083;DHT22;4577;48.704;9.000;2022-12-29T00:01:34;8.80;75.80
9083;DHT22;4577;48.704;9.000;2022-12-29T00:06:26;8.80;75.40
9083;DHT22;4577;48.704;9.000;2022-12-29T00:08:52;9.00;75.20
9083;DHT22;4577;48.704;9.000;2022-12-29T00:11:21;8.80;74.90
9083;DHT22;4577;48.704;9.000;2022-12-29T00:13:48;8.90;75.10
9083;DHT22;4577;48.704;9.000;2022-12-29T00:16:33;9.00;75.00
9083;DHT22;4577;48.704;9.000;2022-12-29T00:21:26;9.00;74.80
9083;DHT22;4577;48.704;9.000;2022-12-29T00:24:14;9.30;74.60
9083;DHT22;4577;48.704;9.000;2022-12-29T00:32:30;9.10;74.30
9083;DHT22;4577;48.704;9.000;2022-12-29T00:35:33;9.10;74.20
9083;DHT22;4577;48.704;9.000;2022-12-29T00:38:05;9.20;74.40
9083;DHT22;4577;48.704;9.000;2022-12-29T00:46:19;9.20;74.40
9083;DHT22;4577;48.704;9.000;2022-12-29T00:48:45;9.60;74.60
9083;DHT22;4577;48.704;9.000;2022-12-29T00:51:34;9.20;74.10
9083;DHT22;4577;48.704;9.000;2022-12-29T00:53:59;9.30;74.40
9083;DHT22;4577;48.704;9.000;2022-12-29T00:56:25;9.30;74.20
9083;DHT22;4577;48.704;9.000;2022-12-29T01:03:43;9.40;73.90
9083;DHT22;4577;48.704;9.000;2022-12-29T01:06:12;9.40;74.00
9083;DHT22;4577;48.704;9.000;2022-12-29T01:08:38;9.50;73.80
9083;DHT22;4577;48.704;9.000;2022-12-29T01:11:07;9.40;73.70
9083;DHT22;4577;48.704;9.000;2022-12-29T01:13:34;9.40;73.70
9083;DHT22;4577;48.704;9.000;2022-12-29T01:16:00;9.50;73.80
9083;DHT22;4577;48.704;9.000;2022-12-29T01:18:26;9.40;73.30
9083;DHT22;4577;48.704;9.000;2022-12-29T01:21:02;9.60;73.10
9083;DHT22;4577;48.704;9.000;2022-12-29T01:23:30;9.60;73.20
9083;DHT22;4577;48.704;9.000;2022-12-29T01:25:57;9.70;72.90
9083;DHT22;4577;48.704;9.000;2022-12-29T01:28:23;9.40;72.30
9083;DHT22;4577;48.704;9.000;2022-12-29T01:30:49;9.90;72.30
9083;DHT22;4577;48.704;9.000;2022-12-29T01:35:41;10.30;71.30
9083;DHT22;4577;48.704;9.000;2022-12-29T01:38:07;10.00;70.70
9083;DHT22;4577;48.704;9.000;2022-12-29T01:42:59;10.20;70.80
9083;DHT22;4577;48.704;9.000;2022-12-29T01:45:25;10.10;70.40
9083;DHT22;4577;48.704;9.000;2022-12-29T01:47:59;9.90;71.20
9083;DHT22;4577;48.704;9.000;2022-12-29T01:50:33;10.10;70.40
9083;DHT22;4577;48.704;9.000;2022-12-29T01:53:26;10.10;70.20
9083;DHT22;4577;48.704;9.000;2022-12-29T01:55:59;10.00;70.50
9083;DHT22;4577;48.704;9.000;2022-12-29T01:58:30;10.00;70.00
9083;DHT22;4577;48.704;9.000;2022-12-29T02:00:58;10.10;69.80
9083;DHT22;4577;48.704;9.000;2022-12-29T02:03:26;10.10;70.20
9083;DHT22;4577;48.704;9.000;2022-12-29T02:06:13;10.10;70.10
9083;DHT22;4577;48.704;9.000;2022-12-29T02:11:07;10.20;70.00
9083;DHT22;4577;48.704;9.000;2022-12-29T02:13:33;10.00;69.80
9083;DHT22;4577;48.704;9.000;2022-12-29T02:46:10;10.40;69.50
9083;DHT22;4577;48.704;9.000;2022-12-29T02:51:35;10.50;69.20
9083;DHT22;4577;48.704;9.000;2022-12-29T02:56:48;10.50;69.00
9083;DHT22;4577;48.704;9.000;2022-12-29T02:59:14;10.50;69.10
9083;DHT22;4577;48.704;9.000;2022-12-29T03:24:32;11.00;69.70
9083;DHT22;4577;48.704;9.000;2022-12-29T03:27:00;10.60;69.40
9083;DHT22;4577;48.704;9.000;2022-12-29T03:29:29;10.60;69.40
9083;DHT22;4577;48.704;9.000;2022-12-29T03:31:57;10.60;69.50
9083;DHT22;4577;48.704;9.000;2022-12-29T03:34:25;10.60;69.60
9083;DHT22;4577;48.704;9.000;2022-12-29T03:37:01;10.60;69.70
9083;DHT22;4577;48.704;9.000;2022-12-29T03:39:28;10.60;70.00
9083;DHT22;4577;48.704;9.000;2022-12-29T03:42:04;10.60;70.10
9083;DHT22;4577;48.704;9.000;2022-12-29T03:44:43;10.60;70.40
9083;DHT22;4577;48.704;9.000;2022-12-29T03:47:11;10.60;70.50
9083;DHT22;4577;48.704;9.000;2022-12-29T03:49:37;10.30;70.40
9083;DHT22;4577;48.704;9.000;2022-12-29T03:52:03;10.70;71.00
9083;DHT22;4577;48.704;9.000;2022-12-29T03:54:29;10.50;71.00
9083;DHT22;4577;48.704;9.000;2022-12-29T03:56:55;10.50;71.20
9083;DHT22;4577;48.704;9.000;2022-12-29T03:59:20;10.60;71.50
9083;DHT22;4577;48.704;9.000;2022-12-29T04:01:46;11.00;71.90
9083;DHT22;4577;48.704;9.000;2022-12-29T04:04:12;10.60;71.80
9083;DHT22;4577;48.704;9.000;2022-12-29T04:09:04;10.50;72.20
9083;DHT22;4577;48.704;9.000;2022-12-29T04:16:22;10.70;72.60
9083;DHT22;4577;48.704;9.000;2022-12-29T04:18:47;10.30;72.30
9083;DHT22;4577;48.704;9.000;2022-12-29T04:21:13;10.70;72.70
9083;DHT22;4577;48.704;9.000;2022-12-29T04:23:39;10.60;72.80
9083;DHT22;4577;48.704;9.000;2022-12-29T04:26:06;10.50;72.80
9083;DHT22;4577;48.704;9.000;2022-12-29T04:28:32;10.50;73.00
9083;DHT22;4577;48.704;9.000;2022-12-29T04:33:24;10.50;73.40
9083;DHT22;4577;48.704;9.000;2022-12-29T04:35:50;10.80;73.60
9083;DHT22;4577;48.704;9.000;2022-12-29T04:38:18;10.60;73.50
9083;DHT22;4577;48.704;9.000;2022-12-29T04:40:44;10.60;73.60
9083;DHT22;4577;48.704;9.000;2022-12-29T04:45:36;10.70;73.60
9083;DHT22;4577;48.704;9.000;2022-12-29T04:48:01;10.80;73.90
9083;DHT22;4577;48.704;9.000;2022-12-29T04:52:54;10.80;73.70
9083;DHT22;4577;48.704;9.000;2022-12-29T04:55:20;10.80;73.50
9083;DHT22;4577;48.704;9.000;2022-12-29T04:57:45;10.90;73.50
9083;DHT22;4577;48.704;9.000;2022-12-29T05:00:12;10.70;73.30
9083;DHT22;4577;48.704;9.000;2022-12-29T05:02:38;10.80;73.90
9083;DHT22;4577;48.704;9.000;2022-12-29T05:05:04;10.80;73.60
9083;DHT22;4577;48.704;9.000;2022-12-29T05:09:58;10.90;73.70
9083;DHT22;4577;48.704;9.000;2022-12-29T05:12:24;10.90;73.60
9083;DHT22;4577;48.704;9.000;2022-12-29T05:17:16;10.80;73.70
9083;DHT22;4577;48.704;9.000;2022-12-29T05:22:07;10.80;73.90
9083;DHT22;4577;48.704;9.000;2022-12-29T05:26:59;10.70;74.00
9083;DHT22;4577;48.704;9.000;2022-12-29T05:29:24;10.60;74.10
9083;DHT22;4577;48.704;9.000;2022-12-29T05:34:16;10.80;74.10
9083;DHT22;4577;48.704;9.000;2022-12-29T05:36:42;10.80;73.80
9083;DHT22;4577;48.704;9.000;2022-12-29T05:39:07;10.80;73.90
9083;DHT22;4577;48.704;9.000;2022-12-29T05:41:34;10.80;73.40
9083;DHT22;4577;48.704;9.000;2022-12-29T05:44:00;11.10;74.00
9083;DHT22;4577;48.704;9.000;2022-12-29T05:46:26;10.80;73.30
9083;DHT22;4577;48.704;9.000;2022-12-29T05:48:51;10.80;73.30
9083;DHT22;4577;48.704;9.000;2022-12-29T05:51:17;11.00;73.50
9083;DHT22;4577;48.704;9.000;2022-12-29T05:53:42;11.00;73.30
9083;DHT22;4577;48.704;9.000;2022-12-29T05:58:34;11.00;73.00
9083;DHT22;4577;48.704;9.000;2022-12-29T06:01:00;11.10;72.80
9083;DHT22;4577;48.704;9.000;2022-12-29T06:03:25;11.00;72.90
9083;DHT22;4577;48.704;9.000;2022-12-29T06:08:17;11.00;72.60
9083;DHT22;4577;48.704;9.000;2022-12-29T06:10:43;11.10;72.70
9083;DHT22;4577;48.704;9.000;2022-12-29T06:13:09;11.10;72.60
9083;DHT22;4577;48.704;9.000;2022-12-29T06:15:35;10.90;72.10
9083;DHT22;4577;48.704;9.000;2022-12-29T06:18:00;11.00;72.60
9083;DHT22;4577;48.704;9.000;2022-12-29T06:20:26;11.00;72.50
9083;DHT22;4577;48.704;9.000;2022-12-29T06:30:11;11.20;71.90
9083;DHT22;4577;48.704;9.000;2022-12-29T06:35:04;11.20;71.30
9083;DHT22;4577;48.704;9.000;2022-12-29T06:37:30;11.20;71.10
9083;DHT22;4577;48.704;9.000;2022-12-29T06:39:55;11.30;71.50
9083;DHT22;4577;48.704;9.000;2022-12-29T06:56:57;10.70;70.80
9083;DHT22;4577;48.704;9.000;2022-12-29T06:59:24;10.60;70.50
9083;DHT22;4577;48.704;9.000;2022-12-29T07:04:16;10.50;70.30
9083;DHT22;4577;48.704;9.000;2022-12-29T07:09:08;10.50;70.30
9083;DHT22;4577;48.704;9.000;2022-12-29T07:11:35;10.50;70.40
9083;DHT22;4577;48.704;9.000;2022-12-29T07:18:55;10.40;70.40
9083;DHT22;4577;48.704;9.000;2022-12-29T07:21:21;10.50;70.60
9083;DHT22;4577;48.704;9.000;2022-12-29T07:26:14;10.40;70.90
9083;DHT22;4577;48.704;9.000;2022-12-29T07:28:40;10.30;70.90
9083;DHT22;4577;48.704;9.000;2022-12-29T07:31:13;10.50;70.90
9083;DHT22;4577;48.704;9.000;2022-12-29T07:33:40;10.90;71.40
9083;DHT22;4577;48.704;9.000;2022-12-29T07:38:32;10.50;71.10
9083;DHT22;4577;48.704;9.000;2022-12-29T07:43:24;10.70;71.20
9083;DHT22;4577;48.704;9.000;2022-12-29T07:48:16;10.50;71.00
9083;DHT22;4577;48.704;9.000;2022-12-29T07:50:42;10.50;71.20
9083;DHT22;4577;48.704;9.000;2022-12-29T07:55:33;10.50;71.30
9083;DHT22;4577;48.704;9.000;2022-12-29T07:57:59;10.40;71.30
9083;DHT22;4577;48.704;9.000;2022-12-29T08:05:17;10.50;71.80
9083;DHT22;4577;48.704;9.000;2022-12-29T08:07:46;10.50;71.80
9083;DHT22;4577;48.704;9.000;2022-12-29T08:10:12;10.50;71.90
9083;DHT22;4577;48.704;9.000;2022-12-29T08:12:39;10.50;71.90
9083;DHT22;4577;48.704;9.000;2022-12-29T08:15:06;10.60;71.50
9083;DHT22;4577;48.704;9.000;2022-12-29T08:17:32;10.60;71.70
9083;DHT22;4577;48.704;9.000;2022-12-29T08:22:24;10.70;71.70
9083;DHT22;4577;48.704;9.000;2022-12-29T08:24:50;10.80;71.60
9083;DHT22;4577;48.704;9.000;2022-12-29T08:29:43;10.80;71.50
9083;DHT22;4577;48.704;9.000;2022-12-29T08:34:34;10.90;71.60
9083;DHT22;4577;48.704;9.000;2022-12-29T08:39:26;10.70;71.40
9083;DHT22;4577;48.704;9.000;2022-12-29T08:41:53;10.70;71.50
9083;DHT22;4577;48.704;9.000;2022-12-29T08:44:18;10.70;71.80
9083;DHT22;4577;48.704;9.000;2022-12-29T08:46:44;10.70;71.80
9083;DHT22;4577;48.704;9.000;2022-12-29T08:56:29;10.90;70.50
9083;DHT22;4577;48.704;9.000;2022-12-29T08:58:55;11.10;70.80
9083;DHT22;4577;48.704;9.000;2022-12-29T09:01:21;11.10;70.50
9083;DHT22;4577;48.704;9.000;2022-12-29T09:06:14;11.10;70.10
9083;DHT22;4577;48.704;9.000;2022-12-29T09:08:40;11.20;69.90
9083;DHT22;4577;48.704;9.000;2022-12-29T09:11:12;11.40;69.40
9083;DHT22;4577;48.704;9.000;2022-12-29T09:13:37;11.40;69.30
9083;DHT22;4577;48.704;9.000;2022-12-29T09:16:03;11.50;69.10
9083;DHT22;4577;48.704;9.000;2022-12-29T09:18:30;11.60;68.80
9083;DHT22;4577;48.704;9.000;2022-12-29T09:21:00;11.60;68.50
9083;DHT22;4577;48.704;9.000;2022-12-29T09:23:26;11.70;68.20
9083;DHT22;4577;48.704;9.000;2022-12-29T09:25:53;11.80;67.70
9083;DHT22;4577;48.704;9.000;2022-12-29T09:28:19;11.80;67.60
9083;DHT22;4577;48.704;9.000;2022-12-29T09:30:45;12.00;67.40
9083;DHT22;4577;48.704;9.000;2022-12-29T09:33:11;11.80;67.00
9083;DHT22;4577;48.704;9.000;2022-12-29T09:40:30;12.20;67.30
9083;DHT22;4577;48.704;9.000;2022-12-29T09:43:58;12.20;67.50
9083;DHT22;4577;48.704;9.000;2022-12-29T09:48:33;12.20;67.70
9083;DHT22;4577;48.704;9.000;2022-12-29T09:51:03;12.40;67.80
9083;DHT22;4577;48.704;9.000;2022-12-29T09:56:01;12.30;68.00
9083;DHT22;4577;48.704;9.000;2022-12-29T09:58:37;12.40;68.10
9083;DHT22;4577;48.704;9.000;2022-12-29T10:01:07;12.40;68.50
9083;DHT22;4577;48.704;9.000;2022-12-29T10:03:53;12.40;68.40
9083;DHT22;4577;48.704;9.000;2022-12-29T10:11:52;12.40;68.30
9083;DHT22;4577;48.704;9.000;2022-12-29T10:15:18;12.40;68.20
9083;DHT22;4577;48.704;9.000;2022-12-29T10:25:27;12.50;68.90
9083;DHT22;4577;48.704;9.000;2022-12-29T10:27:58;12.60;68.70
9083;DHT22;4577;48.704;9.000;2022-12-29T10:32:57;12.60;68.90
9083;DHT22;4577;48.704;9.000;2022-12-29T10:35:32;12.60;68.80
9083;DHT22;4577;48.704;9.000;2022-12-29T10:40:43;12.80;69.90
9083;DHT22;4577;48.704;9.000;2022-12-29T10:43:26;12.80;68.20
9083;DHT22;4577;48.704;9.000;2022-12-29T10:46:01;12.80;68.10
9083;DHT22;4577;48.704;9.000;2022-12-29T10:48:32;12.90;68.30
9083;DHT22;4577;48.704;9.000;2022-12-29T10:51:00;13.00;68.20
9083;DHT22;4577;48.704;9.000;2022-12-29T10:53:34;13.00;67.80
9083;DHT22;4577;48.704;9.000;2022-12-29T10:56:04;12.80;66.80
9083;DHT22;4577;48.704;9.000;2022-12-29T11:00:57;12.80;67.60
9083;DHT22;4577;48.704;9.000;2022-12-29T11:03:48;12.70;67.60
9083;DHT22;4577;48.704;9.000;2022-12-29T11:09:31;12.50;67.40
9083;DHT22;4577;48.704;9.000;2022-12-29T11:11:37;12.60;67.70
9083;DHT22;4577;48.704;9.000;2022-12-29T11:16:33;12.60;68.30
9083;DHT22;4577;48.704;9.000;2022-12-29T11:19:00;11.90;68.70
9083;DHT22;4577;48.704;9.000;2022-12-29T11:21:32;12.60;69.70
9083;DHT22;4577;48.704;9.000;2022-12-29T11:26:25;12.40;69.90
9083;DHT22;4577;48.704;9.000;2022-12-29T11:29:36;12.50;71.50
9083;DHT22;4577;48.704;9.000;2022-12-29T11:32:18;12.40;72.50
9083;DHT22;4577;48.704;9.000;2022-12-29T11:37:19;12.30;75.00
9083;DHT22;4577;48.704;9.000;2022-12-29T11:39:58;12.20;73.80
9083;DHT22;4577;48.704;9.000;2022-12-29T11:42:37;12.60;73.70
9083;DHT22;4577;48.704;9.000;2022-12-29T11:45:09;12.40;73.50
9083;DHT22;4577;48.704;9.000;2022-12-29T11:50:06;12.40;74.60
9083;DHT22;4577;48.704;9.000;2022-12-29T11:52:35;12.40;73.70
9083;DHT22;4577;48.704;9.000;2022-12-29T11:55:05;12.30;74.20
9083;DHT22;4577;48.704;9.000;2022-12-29T11:57:33;12.30;74.30
9083;DHT22;4577;48.704;9.000;2022-12-29T12:00:03;12.30;74.20
9083;DHT22;4577;48.704;9.000;2022-12-29T12:07:49;12.20;74.40
9083;DHT22;4577;48.704;9.000;2022-12-29T12:10:32;12.10;74.70
9083;DHT22;4577;48.704;9.000;2022-12-29T12:15:57;12.10;75.40
9083;DHT22;4577;48.704;9.000;2022-12-29T12:18:32;12.10;75.70
9083;DHT22;4577;48.704;9.000;2022-12-29T12:21:38;12.10;76.10
9083;DHT22;4577;48.704;9.000;2022-12-29T12:26:55;12.10;76.60
9083;DHT22;4577;48.704;9.000;2022-12-29T12:32:04;12.20;78.50
9083;DHT22;4577;48.704;9.000;2022-12-29T12:34:42;12.20;80.10
9083;DHT22;4577;48.704;9.000;2022-12-29T12:45:49;12.10;81.10
9083;DHT22;4577;48.704;9.000;2022-12-29T12:48:43;12.00;81.10
9083;DHT22;4577;48.704;9.000;2022-12-29T13:00:11;12.10;81.20
9083;DHT22;4577;48.704;9.000;2022-12-29T13:19:08;12.40;79.80
9083;DHT22;4577;48.704;9.000;2022-12-29T13:24:40;12.30;79.60
9083;DHT22;4577;48.704;9.000;2022-12-29T13:30:09;12.10;80.00
9083;DHT22;4577;48.704;9.000;2022-12-29T13:38:19;12.20;79.70
9083;DHT22;4577;48.704;9.000;2022-12-29T13:40:50;12.30;80.00
9083;DHT22;4577;48.704;9.000;2022-12-29T13:43:20;12.20;80.10
9083;DHT22;4577;48.704;9.000;2022-12-29T13:45:53;12.20;80.00
9083;DHT22;4577;48.704;9.000;2022-12-29T13:48:23;12.20;80.60
9083;DHT22;4577;48.704;9.000;2022-12-29T13:50:57;12.20;80.60
9083;DHT22;4577;48.704;9.000;2022-12-29T13:53:49;12.10;80.90
9083;DHT22;4577;48.704;9.000;2022-12-29T13:56:25;12.00;81.30
9083;DHT22;4577;48.704;9.000;2022-12-29T14:09:38;12.20;80.60
9083;DHT22;4577;48.704;9.000;2022-12-29T14:12:36;12.10;81.20
9083;DHT22;4577;48.704;9.000;2022-12-29T14:17:34;12.00;81.40
9083;DHT22;4577;48.704;9.000;2022-12-29T14:20:01;12.00;81.40
9083;DHT22;4577;48.704;9.000;2022-12-29T14:22:28;12.00;81.60
9083;DHT22;4577;48.704;9.000;2022-12-29T14:29:48;11.90;81.50
9083;DHT22;4577;48.704;9.000;2022-12-29T14:34:56;11.80;81.40
9083;DHT22;4577;48.704;9.000;2022-12-29T14:37:30;11.90;81.40
9083;DHT22;4577;48.704;9.000;2022-12-29T14:40:25;11.90;81.40
9083;DHT22;4577;48.704;9.000;2022-12-29T14:42:54;11.90;81.30
9083;DHT22;4577;48.704;9.000;2022-12-29T14:47:48;11.80;82.10
9083;DHT22;4577;48.704;9.000;2022-12-29T14:52:49;11.80;81.50
9083;DHT22;4577;48.704;9.000;2022-12-29T14:57:43;11.80;81.20
9083;DHT22;4577;48.704;9.000;2022-12-29T15:02:41;11.60;80.80
9083;DHT22;4577;48.704;9.000;2022-12-29T15:05:27;11.60;81.00
9083;DHT22;4577;48.704;9.000;2022-12-29T15:07:56;11.60;80.50
9083;DHT22;4577;48.704;9.000;2022-12-29T15:10:23;11.60;80.70
9083;DHT22;4577;48.704;9.000;2022-12-29T15:12:52;11.70;80.30
9083;DHT22;4577;48.704;9.000;2022-12-29T15:15:23;11.70;79.90
9083;DHT22;4577;48.704;9.000;2022-12-29T15:17:49;12.10;80.40
9083;DHT22;4577;48.704;9.000;2022-12-29T15:20:25;11.70;79.60
9083;DHT22;4577;48.704;9.000;2022-12-29T15:22:57;11.70;79.80
9083;DHT22;4577;48.704;9.000;2022-12-29T15:25:23;11.70;79.60
9083;DHT22;4577;48.704;9.000;2022-12-29T15:28:01;11.70;79.90
9083;DHT22;4577;48.704;9.000;2022-12-29T15:35:24;11.60;79.90
9083;DHT22;4577;48.704;9.000;2022-12-29T15:40:27;11.60;79.80
9083;DHT22;4577;48.704;9.000;2022-12-29T15:43:21;11.60;79.90
9083;DHT22;4577;48.704;9.000;2022-12-29T15:45:49;11.50;79.70
9083;DHT22;4577;48.704;9.000;2022-12-29T15:48:21;11.60;79.70
9083;DHT22;4577;48.704;9.000;2022-12-29T15:53:27;11.50;80.20
9083;DHT22;4577;48.704;9.000;2022-12-29T15:55:59;11.40;80.80
9083;DHT22;4577;48.704;9.000;2022-12-29T15:58:29;11.20;82.60
9083;DHT22;4577;48.704;9.000;2022-12-29T16:01:00;10.80;85.30
9083;DHT22;4577;48.704;9.000;2022-12-29T16:03:27;10.40;88.10
9083;DHT22;4577;48.704;9.000;2022-12-29T16:06:07;10.10;90.50
9083;DHT22;4577;48.704;9.000;2022-12-29T16:08:36;9.90;92.20
9083;DHT22;4577;48.704;9.000;2022-12-29T16:11:25;9.80;92.90
9083;DHT22;4577;48.704;9.000;2022-12-29T16:13:52;9.80;93.50
9083;DHT22;4577;48.704;9.000;2022-12-29T16:16:22;9.80;93.60
9083;DHT22;4577;48.704;9.000;2022-12-29T16:18:51;9.60;93.80
9083;DHT22;4577;48.704;9.000;2022-12-29T16:21:29;9.60;94.40
9083;DHT22;4577;48.704;9.000;2022-12-29T16:24:01;9.50;94.40
9083;DHT22;4577;48.704;9.000;2022-12-29T16:28:58;9.60;94.70
9083;DHT22;4577;48.704;9.000;2022-12-29T16:37:00;9.80;94.40
9083;DHT22;4577;48.704;9.000;2022-12-29T16:39:39;9.80;94.20
9083;DHT22;4577;48.704;9.000;2022-12-29T16:50:38;9.50;95.50
9083;DHT22;4577;48.704;9.000;2022-12-29T16:53:05;9.90;96.10
9083;DHT22;4577;48.704;9.000;2022-12-29T16:55:33;9.50;96.40
9083;DHT22;4577;48.704;9.000;2022-12-29T16:58:00;10.10;96.20
9083;DHT22;4577;48.704;9.000;2022-12-29T17:00:28;9.50;96.60
9083;DHT22;4577;48.704;9.000;2022-12-29T17:03:00;9.60;96.50
9083;DHT22;4577;48.704;9.000;2022-12-29T17:05:26;9.50;96.30
9083;DHT22;4577;48.704;9.000;2022-12-29T17:07:53;9.60;96.50
9083;DHT22;4577;48.704;9.000;2022-12-29T17:10:20;9.70;96.30
9083;DHT22;4577;48.704;9.000;2022-12-29T17:13:07;9.60;96.50
9083;DHT22;4577;48.704;9.000;2022-12-29T17:15:34;9.60;96.80
9083;DHT22;4577;48.704;9.000;2022-12-29T17:20:29;9.70;96.70
9083;DHT22;4577;48.704;9.000;2022-12-29T17:22:56;9.80;96.70
9083;DHT22;4577;48.704;9.000;2022-12-29T17:25:27;9.70;96.50
9083;DHT22;4577;48.704;9.000;2022-12-29T17:27:59;9.80;96.40
9083;DHT22;4577;48.704;9.000;2022-12-29T17:30:27;9.70;96.40
9083;DHT22;4577;48.704;9.000;2022-12-29T17:33:10;9.70;96.60
9083;DHT22;4577;48.704;9.000;2022-12-29T17:38:28;10.00;96.30
9083;DHT22;4577;48.704;9.000;2022-12-29T17:43:21;9.90;96.50
9083;DHT22;4577;48.704;9.000;2022-12-29T17:45:51;9.90;97.00
9083;DHT22;4577;48.704;9.000;2022-12-29T17:48:19;10.00;96.60
9083;DHT22;4577;48.704;9.000;2022-12-29T17:50:49;10.00;97.00
9083;DHT22;4577;48.704;9.000;2022-12-29T17:53:20;10.00;97.20
9083;DHT22;4577;48.704;9.000;2022-12-29T17:55:47;10.20;97.10
9083;DHT22;4577;48.704;9.000;2022-12-29T17:58:20;10.50;97.00
9083;DHT22;4577;48.704;9.000;2022-12-29T18:00:48;10.10;97.30
9083;DHT22;4577;48.704;9.000;2022-12-29T18:03:15;10.20;96.90
9083;DHT22;4577;48.704;9.000;2022-12-29T18:08:09;10.20;96.20
9083;DHT22;4577;48.704;9.000;2022-12-29T18:10:37;10.10;96.00
9083;DHT22;4577;48.704;9.000;2022-12-29T18:13:04;9.90;96.80
9083;DHT22;4577;48.704;9.000;2022-12-29T18:15:34;9.70;97.10
9083;DHT22;4577;48.704;9.000;2022-12-29T18:20:28;9.50;98.10
9083;DHT22;4577;48.704;9.000;2022-12-29T18:22:56;9.40;98.50
9083;DHT22;4577;48.704;9.000;2022-12-29T18:25:49;9.30;99.00
9083;DHT22;4577;48.704;9.000;2022-12-29T18:28:17;9.20;99.00
9083;DHT22;4577;48.704;9.000;2022-12-29T18:30:44;9.20;99.10
9083;DHT22;4577;48.704;9.000;2022-12-29T18:33:17;9.30;99.40
9083;DHT22;4577;48.704;9.000;2022-12-29T18:35:50;9.30;99.40
9083;DHT22;4577;48.704;9.000;2022-12-29T18:38:17;9.20;99.30
9083;DHT22;4577;48.704;9.000;2022-12-29T18:40:48;9.20;99.50
9083;DHT22;4577;48.704;9.000;2022-12-29T18:43:15;9.10;99.60
9083;DHT22;4577;48.704;9.000;2022-12-29T18:45:44;9.00;99.90
9083;DHT22;4577;48.704;9.000;2022-12-29T18:48:14;9.10;99.90
9083;DHT22;4577;48.704;9.000;2022-12-29T18:53:12;9.00;99.90
9083;DHT22;4577;48.704;9.000;2022-12-29T19:05:30;9.00;99.90
9083;DHT22;4577;48.704;9.000;2022-12-29T19:10:24;9.00;99.90
9083;DHT22;4577;48.704;9.000;2022-12-29T19:12:50;9.00;99.80
9083;DHT22;4577;48.704;9.000;2022-12-29T19:15:23;9.00;99.60
9083;DHT22;4577;48.704;9.000;2022-12-29T19:17:51;8.60;99.80
9083;DHT22;4577;48.704;9.000;2022-12-29T19:20:47;8.80;99.90
9083;DHT22;4577;48.704;9.000;2022-12-29T19:23:18;8.90;99.90
9083;DHT22;4577;48.704;9.000;2022-12-29T19:25:46;9.00;99.90
9083;DHT22;4577;48.704;9.000;2022-12-29T19:28:21;9.10;99.90
9083;DHT22;4577;48.704;9.000;2022-12-29T19:30:48;11.80;99.90
9083;DHT22;4577;48.704;9.000;2022-12-29T19:33:15;9.30;99.80
9083;DHT22;4577;48.704;9.000;2022-12-29T19:35:42;9.00;99.20
9083;DHT22;4577;48.704;9.000;2022-12-29T19:38:11;9.00;99.20
9083;DHT22;4577;48.704;9.000;2022-12-29T19:40:45;8.90;99.80
9083;DHT22;4577;48.704;9.000;2022-12-29T19:43:13;8.70;99.20
9083;DHT22;4577;48.704;9.000;2022-12-29T19:45:41;8.80;98.80
9083;DHT22;4577;48.704;9.000;2022-12-29T19:48:12;8.70;99.50
9083;DHT22;4577;48.704;9.000;2022-12-29T19:53:05;8.70;99.20
9083;DHT22;4577;48.704;9.000;2022-12-29T19:55:32;8.80;99.30
9083;DHT22;4577;48.704;9.000;2022-12-29T20:00:24;8.90;99.90
9083;DHT22;4577;48.704;9.000;2022-12-29T20:02:51;8.70;98.50
9083;DHT22;4577;48.704;9.000;2022-12-29T20:07:44;8.70;98.20
9083;DHT22;4577;48.704;9.000;2022-12-29T20:10:11;8.70;97.60
9083;DHT22;4577;48.704;9.000;2022-12-29T20:15:07;8.70;97.50
9083;DHT22;4577;48.704;9.000;2022-12-29T20:17:34;8.60;97.40
9083;DHT22;4577;48.704;9.000;2022-12-29T20:20:01;8.60;97.40
9083;DHT22;4577;48.704;9.000;2022-12-29T20:27:21;8.80;97.00
9083;DHT22;4577;48.704;9.000;2022-12-29T20:32:17;8.40;95.00
9083;DHT22;4577;48.704;9.000;2022-12-29T20:34:45;8.50;95.80
9083;DHT22;4577;48.704;9.000;2022-12-29T20:37:13;8.40;95.80
9083;DHT22;4577;48.704;9.000;2022-12-29T20:39:40;8.30;95.90
9083;DHT22;4577;48.704;9.000;2022-12-29T20:44:34;8.30;96.00
9083;DHT22;4577;48.704;9.000;2022-12-29T20:47:01;8.20;96.00
9083;DHT22;4577;48.704;9.000;2022-12-29T20:51:56;8.20;96.90
9083;DHT22;4577;48.704;9.000;2022-12-29T20:54:22;8.10;97.20
9083;DHT22;4577;48.704;9.000;2022-12-29T20:56:49;8.10;97.10
9083;DHT22;4577;48.704;9.000;2022-12-29T21:04:09;8.10;98.10
9083;DHT22;4577;48.704;9.000;2022-12-29T21:06:36;8.10;98.50
9083;DHT22;4577;48.704;9.000;2022-12-29T21:09:03;8.00;98.30
9083;DHT22;4577;48.704;9.000;2022-12-29T21:13:57;7.80;99.20
9083;DHT22;4577;48.704;9.000;2022-12-29T21:18:50;8.10;99.10
9083;DHT22;4577;48.704;9.000;2022-12-29T21:21:22;8.30;99.50
9083;DHT22;4577;48.704;9.000;2022-12-29T21:23:49;8.30;99.00
9083;DHT22;4577;48.704;9.000;2022-12-29T21:26:22;8.60;99.50
9083;DHT22;4577;48.704;9.000;2022-12-29T21:28:50;8.40;98.80
9083;DHT22;4577;48.704;9.000;2022-12-29T21:31:27;8.50;98.80
9083;DHT22;4577;48.704;9.000;2022-12-29T21:33:55;8.30;98.10
9083;DHT22;4577;48.704;9.000;2022-12-29T21:36:21;9.10;98.40
9083;DHT22;4577;48.704;9.000;2022-12-29T21:41:14;8.20;95.40
9083;DHT22;4577;48.704;9.000;2022-12-29T21:43:41;8.10;94.80
9083;DHT22;4577;48.704;9.000;2022-12-29T21:46:07;8.00;93.80
9083;DHT22;4577;48.704;9.000;2022-12-29T21:51:07;8.00;94.50
9083;DHT22;4577;48.704;9.000;2022-12-29T21:53:59;8.30;95.10
9083;DHT22;4577;48.704;9.000;2022-12-29T21:56:47;8.20;93.90
9083;DHT22;4577;48.704;9.000;2022-12-29T21:59:14;8.30;93.60
9083;DHT22;4577;48.704;9.000;2022-12-29T22:01:59;8.20;93.30
9083;DHT22;4577;48.704;9.000;2022-12-29T22:07:28;8.20;93.60
9083;DHT22;4577;48.704;9.000;2022-12-29T22:10:12;8.10;93.20
9083;DHT22;4577;48.704;9.000;2022-12-29T22:12:58;8.10;93.20
9083;DHT22;4577;48.704;9.000;2022-12-29T22:15:32;8.20;93.70
9083;DHT22;4577;48.704;9.000;2022-12-29T22:17:58;8.10;93.20
9083;DHT22;4577;48.704;9.000;2022-12-29T22:20:27;8.10;93.30
9083;DHT22;4577;48.704;9.000;2022-12-29T22:22:53;8.20;93.60
9083;DHT22;4577;48.704;9.000;2022-12-29T22:25:19;8.50;94.10
9083;DHT22;4577;48.704;9.000;2022-12-29T22:30:12;8.10;93.80
9083;DHT22;4577;48.704;9.000;2022-12-29T22:35:05;8.10;93.70
9083;DHT22;4577;48.704;9.000;2022-12-29T22:37:32;8.10;93.60
9083;DHT22;4577;48.704;9.000;2022-12-29T22:44:50;7.70;93.70
9083;DHT22;4577;48.704;9.000;2022-12-29T22:47:16;7.80;93.70
9083;DHT22;4577;48.704;9.000;2022-12-29T22:49:41;7.90;94.00
9083;DHT22;4577;48.704;9.000;2022-12-29T22:52:07;8.10;93.90
9083;DHT22;4577;48.704;9.000;2022-12-29T22:54:33;8.00;94.00
9083;DHT22;4577;48.704;9.000;2022-12-29T22:56:58;7.70;93.90
9083;DHT22;4577;48.704;9.000;2022-12-29T23:04:16;8.10;93.70
9083;DHT22;4577;48.704;9.000;2022-12-29T23:06:41;8.10;93.60
9083;DHT22;4577;48.704;9.000;2022-12-29T23:09:09;8.10;94.00
9083;DHT22;4577;48.704;9.000;2022-12-29T23:14:04;8.00;93.80
9083;DHT22;4577;48.704;9.000;2022-12-29T23:16:29;8.00;93.80
9083;DHT22;4577;48.704;9.000;2022-12-29T23:18:55;8.00;94.20
9083;DHT22;4577;48.704;9.000;2022-12-29T23:21:21;8.30;94.70
9083;DHT22;4577;48.704;9.000;2022-12-29T23:23:46;7.90;94.50
9083;DHT22;4577;48.704;9.000;2022-12-29T23:26:20;8.00;94.20
9083;DHT22;4577;48.704;9.000;2022-12-29T23:28:46;7.90;94.30
9083;DHT22;4577;48.704;9.000;2022-12-29T23:33:38;7.90;94.30
9083;DHT22;4577;48.704;9.000;2022-12-29T23:36:05;11.50;95.80
9083;DHT22;4577;48.704;9.000;2022-12-29T23:40:57;8.00;95.00
9083;DHT22;4577;48.704;9.000;2022-12-29T23:43:23;8.10;94.90